Time;durP1;ratioP1;P1;durP2;ratioP2;P2;SDS_P1;SDS_P2;PMS_P1;PMS_P2;Temp;Humidity;BMP_temperature;BMP_pressure;BME280_temperature;BME280_humidity;BME280_pressure;Samples;Min_cycle;Max_cycle;Signal;HPM_P1;HPM_P2
2023/08/10 00:01:32;;;;;;;7.32;2.40;;;19.60;99.90;;;;;;5051742;28;20427;-70
2023/08/10 00:04:36;;;;;;;4.53;2.13;;;19.60;99.90;;;;;;5051854;28;20048;-69
2023/08/10 00:08:17;;;;;;;6.93;2.10;;;19.60;99.90;;;;;;5051530;28;20495;-69
2023/08/10 00:11:41;;;;;;;3.78;2.05;;;19.60;99.90;;;;;;5051718;28;20040;-69
2023/08/10 00:14:45;;;;;;;4.03;2.10;;;19.50;99.90;;;;;;5051462;28;20040;-69
2023/08/10 00:18:09;;;;;;;4.93;1.92;;;19.50;99.90;;;;;;5051209;28;20040;-69
2023/08/10 00:21:31;;;;;;;7.07;1.98;;;19.40;99.90;;;;;;5051045;28;20499;-69
2023/08/10 00:24:35;;;;;;;5.75;2.28;;;19.30;99.90;;;;;;5051476;28;20048;-69
2023/08/10 00:27:39;;;;;;;3.97;1.98;;;19.30;99.90;;;;;;5051162;28;20044;-69
2023/08/10 00:30:43;;;;;;;6.68;2.05;;;19.20;99.90;;;;;;5050579;28;20036;-69
2023/08/10 00:33:47;;;;;;;7.80;2.10;;;19.10;99.90;;;;;;5037987;28;20051;-69
2023/08/10 00:40:32;;;;;;;5.72;2.35;;;18.80;99.90;;;;;;5038582;28;20040;-69
2023/08/10 00:46:59;;;;;;;6.28;2.40;;;18.70;99.90;;;;;;5038765;28;20044;-69
2023/08/10 00:50:05;;;;;;;5.15;2.00;;;18.60;99.90;;;;;;5051153;28;20487;-69
2023/08/10 00:53:28;;;;;;;4.03;2.42;;;18.50;99.90;;;;;;5027313;28;20051;-69
2023/08/10 00:56:32;;;;;;;10.75;3.20;;;18.40;99.90;;;;;;5051150;28;20051;-69
2023/08/10 00:59:38;;;;;;;6.22;2.80;;;18.40;99.90;;;;;;5038946;28;20068;-69
2023/08/10 01:03:01;;;;;;;6.72;2.47;;;18.40;99.90;;;;;;5050520;28;20048;-69
2023/08/10 01:06:43;;;;;;;7.93;2.28;;;18.30;99.90;;;;;;5050779;28;20048;-69
2023/08/10 01:09:58;;;;;;;3.75;2.15;;;18.30;99.90;;;;;;5050708;28;20060;-69
2023/08/10 01:13:52;;;;;;;5.00;2.50;;;18.30;99.90;;;;;;5062497;28;20070;-69
2023/08/10 01:16:58;;;;;;;7.47;2.55;;;18.30;99.90;;;;;;5050668;28;20044;-69
2023/08/10 01:20:05;;;;;;;6.70;2.40;;;18.20;99.90;;;;;;5050557;28;20040;-69
2023/08/10 01:23:18;;;;;;;5.65;2.42;;;18.20;99.90;;;;;;5037820;28;20044;-70
2023/08/10 01:26:42;;;;;;;6.53;2.25;;;18.20;99.90;;;;;;5050358;28;20052;-69
2023/08/10 01:30:07;;;;;;;6.25;2.17;;;18.10;99.90;;;;;;5050578;28;20072;-69
2023/08/10 01:36:34;;;;;;;4.55;2.60;;;18.00;99.90;;;;;;5050269;28;20043;-70
2023/08/10 01:40:16;;;;;;;7.07;2.50;;;17.90;99.90;;;;;;5050302;28;20048;-69
2023/08/10 01:43:20;;;;;;;6.60;3.15;;;17.80;99.90;;;;;;5050024;28;20052;-69
2023/08/10 01:46:26;;;;;;;6.68;2.78;;;17.80;99.90;;;;;;5050819;28;20040;-69
2023/08/10 01:49:34;;;;;;;5.75;2.65;;;17.70;99.90;;;;;;5050202;28;20036;-69
2023/08/10 01:53:03;;;;;;;5.68;2.85;;;17.70;99.90;;;;;;5050094;28;20047;-69
2023/08/10 01:56:07;;;;;;;7.03;3.00;;;17.80;99.90;;;;;;5041864;28;20395;-69
2023/08/10 02:03:49;;;;;;;5.03;2.33;;;17.70;99.90;;;;;;5054160;28;20040;-69
2023/08/10 02:10:16;;;;;;;5.95;2.80;;;17.80;99.90;;;;;;5054132;28;20063;-69
2023/08/10 02:13:21;;;;;;;4.85;2.50;;;17.80;99.90;;;;;;5054098;28;20044;-69
2023/08/10 02:16:25;;;;;;;6.22;2.65;;;17.80;99.90;;;;;;5041643;28;20060;-69
2023/08/10 02:19:28;;;;;;;6.55;2.38;;;17.70;99.90;;;;;;5029923;28;20048;-69
2023/08/10 02:26:34;;;;;;;6.00;2.70;;;17.60;99.90;;;;;;5053538;28;20507;-70
2023/08/10 02:29:39;;;;;;;6.70;3.83;;;17.50;99.90;;;;;;5049359;28;20036;-70
2023/08/10 02:33:02;;;;;;;8.02;3.22;;;17.50;99.90;;;;;;5053715;28;20056;-70
2023/08/10 02:39:28;;;;;;;5.68;4.25;;;17.40;99.90;;;;;;5053277;28;20052;-70
2023/08/10 02:42:50;;;;;;;8.77;4.72;;;17.50;99.90;;;;;;5053143;28;20503;-70
2023/08/10 02:45:54;;;;;;;7.05;2.88;;;17.50;99.90;;;;;;5053076;28;20052;-70
2023/08/10 02:48:58;;;;;;;5.95;2.60;;;17.50;99.90;;;;;;5053142;28;20044;-69
2023/08/10 02:52:02;;;;;;;5.75;2.70;;;17.40;99.90;;;;;;5053100;28;20416;-70
2023/08/10 02:55:07;;;;;;;3.83;2.55;;;17.50;99.90;;;;;;5053441;28;20051;-69
2023/08/10 02:58:49;;;;;;;5.68;2.42;;;17.50;99.90;;;;;;5053166;28;20400;-70
2023/08/10 03:02:13;;;;;;;5.72;2.72;;;17.50;99.90;;;;;;5052777;28;20048;-70
2023/08/10 03:08:40;;;;;;;7.60;3.50;;;17.10;99.90;;;;;;5051897;28;20036;-70
2023/08/10 03:11:44;;;;;;;6.38;2.50;;;16.90;99.90;;;;;;5053002;28;20043;-69
2023/08/10 03:14:48;;;;;;;6.40;2.90;;;16.90;99.90;;;;;;5051683;28;20079;-70
2023/08/10 03:17:54;;;;;;;6.75;2.47;;;16.90;99.90;;;;;;5051819;28;20056;-69
2023/08/10 03:24:20;;;;;;;;;;;16.90;99.90;;;;;;5040557;28;20044;-70
2023/08/10 03:27:24;;;;;;;6.78;3.05;;;16.90;99.90;;;;;;5051821;28;19921;-70
2023/08/10 03:30:28;;;;;;;7.40;2.70;;;16.90;99.90;;;;;;5052900;28;20040;-70
2023/08/10 03:33:32;;;;;;;9.45;3.25;;;17.00;99.90;;;;;;5052431;28;20044;-69
2023/08/10 03:36:36;;;;;;;7.13;3.28;;;17.00;99.90;;;;;;5051850;28;20043;-69
2023/08/10 03:39:40;;;;;;;8.13;3.13;;;16.90;99.90;;;;;;5052685;28;20044;-69
2023/08/10 03:43:03;;;;;;;4.72;2.50;;;16.80;99.90;;;;;;5052630;28;20040;-69
2023/08/10 03:46:25;;;;;;;5.95;3.00;;;16.60;99.90;;;;;;5042724;28;20040;-69
2023/08/10 03:50:26;;;;;;;9.52;3.13;;;16.60;99.90;;;;;;5052195;28;20040;-69
2023/08/10 03:53:30;;;;;;;4.95;2.70;;;16.60;99.90;;;;;;5039645;28;20040;-70
2023/08/10 04:00:53;;;;;;;6.43;2.17;;;16.50;99.90;;;;;;5052175;28;20048;-69
2023/08/10 04:04:16;;;;;;;5.78;2.58;;;16.50;99.90;;;;;;5038829;28;20044;-70
2023/08/10 04:07:39;;;;;;;;;;;16.50;99.90;;;;;;5052783;28;20044;-70
2023/08/10 04:14:44;;;;;;;3.92;2.42;;;16.40;99.90;;;;;;5027605;28;20392;-69
2023/08/10 04:18:07;;;;;;;4.75;2.60;;;16.40;99.90;;;;;;5050859;28;20048;-69
2023/08/10 04:21:12;;;;;;;8.43;2.70;;;16.30;99.90;;;;;;5039144;28;20056;-69
2023/08/10 04:24:16;;;;;;;4.50;3.00;;;16.10;99.90;;;;;;5051182;28;20400;-69
2023/08/10 04:27:20;;;;;;;5.70;2.55;;;15.90;99.90;;;;;;5051491;28;20495;-69
2023/08/10 04:33:46;;;;;;;;;;;15.80;99.90;;;;;;5051424;28;20081;-69
2023/08/10 04:37:08;;;;;;;5.80;2.63;;;15.70;99.90;;;;;;5051594;28;19916;-69
2023/08/10 04:40:30;;;;;;;;;;;15.70;99.90;;;;;;5051378;28;20051;-69
2023/08/10 04:43:34;;;;;;;6.22;2.63;;;15.50;99.90;;;;;;5050798;28;19913;-70
2023/08/10 04:46:39;;;;;;;6.55;2.38;;;15.50;99.90;;;;;;5050906;28;20048;-69
2023/08/10 04:49:43;;;;;;;9.13;3.00;;;15.40;99.90;;;;;;5051455;28;20104;-69
2023/08/10 04:53:06;;;;;;;6.50;3.15;;;15.40;99.90;;;;;;5050637;28;20036;-69
2023/08/10 04:56:09;;;;;;;9.85;3.15;;;15.30;99.90;;;;;;5051077;28;20028;-69
2023/08/10 04:59:32;;;;;;;5.40;3.00;;;15.30;99.90;;;;;;5058903;28;20059;-69
2023/08/10 05:02:38;;;;;;;5.28;2.53;;;15.20;99.90;;;;;;5051278;28;20398;-69
2023/08/10 05:05:42;;;;;;;9.40;3.10;;;15.20;99.90;;;;;;5051227;28;20036;-69
2023/08/10 05:09:04;;;;;;;9.55;2.70;;;15.30;99.90;;;;;;5050953;28;20155;-69
2023/08/10 05:12:08;;;;;;;7.35;3.15;;;15.80;99.90;;;;;;5050342;28;20035;-69
2023/08/10 05:15:13;;;;;;;7.53;2.65;;;18.70;99.90;;;;;;5050283;28;20044;-69
2023/08/10 05:18:22;;;;;;;11.70;2.47;;;21.10;99.90;;;;;;5050762;28;20044;-69
2023/08/10 05:25:08;;;;;;;7.13;2.33;;;24.20;99.90;;;;;;5050316;28;20099;-69
2023/08/10 05:28:12;;;;;;;7.13;2.13;;;25.10;99.90;;;;;;5050801;28;20060;-70
2023/08/10 05:31:17;;;;;;;8.85;3.05;;;25.80;99.90;;;;;;5060542;28;20052;-69
2023/08/10 05:34:40;;;;;;;9.93;3.67;;;26.10;99.90;;;;;;5068249;28;20502;-69
2023/08/10 05:37:44;;;;;;;7.93;2.40;;;26.70;99.90;;;;;;5057024;28;20032;-69
2023/08/10 05:40:48;;;;;;;5.43;2.63;;;27.40;99.00;;;;;;5070544;28;20044;-70
2023/08/10 05:43:52;;;;;;;6.75;3.10;;;27.30;98.20;;;;;;5050165;28;20048;-69
2023/08/10 05:46:56;;;;;;;4.40;2.20;;;27.30;97.90;;;;;;5050133;28;20407;-70
2023/08/10 05:50:03;;;;;;;5.53;2.90;;;27.70;98.30;;;;;;5050223;28;20056;-70
2023/08/10 05:53:07;;;;;;;5.90;2.92;;;28.40;97.10;;;;;;5049707;28;20040;-69
2023/08/10 05:56:11;;;;;;;8.80;2.67;;;28.80;95.80;;;;;;5050206;28;20081;-69
2023/08/10 05:59:15;;;;;;;8.00;3.13;;;28.10;96.40;;;;;;5053219;28;20047;-69
2023/08/10 06:02:38;;;;;;;7.68;2.88;;;28.30;96.30;;;;;;5063472;28;20486;-70
2023/08/10 06:06:01;;;;;;;5.75;2.42;;;28.80;95.40;;;;;;5064191;28;20044;-69
2023/08/10 06:09:08;;;;;;;6.10;2.55;;;28.30;95.40;;;;;;5064212;28;20398;-69
2023/08/10 06:15:53;;;;;;;4.30;2.25;;;28.50;94.20;;;;;;5065905;28;20044;-69
2023/08/10 06:19:16;;;;;;;5.88;2.47;;;28.60;94.80;;;;;;5060679;28;20039;-69
2023/08/10 06:22:24;;;;;;;3.42;2.22;;;28.60;94.20;;;;;;5062330;28;20036;-69
2023/08/10 06:28:51;;;;;;;6.47;2.45;;;28.30;94.20;;;;;;5066311;28;20075;-70
2023/08/10 06:32:13;;;;;;;6.18;2.70;;;29.00;93.50;;;;;;5059620;28;20482;-69
2023/08/10 06:35:39;;;;;;;5.18;2.53;;;28.20;94.20;;;;;;5055051;28;20052;-69
2023/08/10 06:39:04;;;;;;;8.35;2.92;;;28.10;94.00;;;;;;5068887;28;20058;-71
2023/08/10 06:43:05;;;;;;;6.40;3.05;;;26.80;95.10;;;;;;5062777;28;20035;-70
2023/08/10 06:46:16;;;;;;;4.45;2.40;;;26.80;95.80;;;;;;5056805;28;20431;-70
2023/08/10 06:49:58;;;;;;;8.45;2.33;;;26.70;96.40;;;;;;5063619;28;20044;-70
2023/08/10 06:53:21;;;;;;;5.47;2.72;;;26.80;96.10;;;;;;5068860;28;20387;-70
2023/08/10 06:56:44;;;;;;;6.70;2.40;;;28.00;95.00;;;;;;5067775;28;20055;-69
2023/08/10 06:59:48;;;;;;;5.95;2.50;;;28.70;94.40;;;;;;5063156;28;20060;-69
2023/08/10 07:02:56;;;;;;;5.40;2.47;;;28.60;94.20;;;;;;5068877;28;20040;-69
2023/08/10 07:06:00;;;;;;;4.95;2.35;;;28.40;94.10;;;;;;5072667;28;20039;-69
2023/08/10 07:09:04;;;;;;;4.97;2.33;;;29.20;93.60;;;;;;5063002;28;20039;-70
2023/08/10 07:12:09;;;;;;;8.20;2.30;;;29.80;92.40;;;;;;5063323;28;20482;-70
2023/08/10 07:15:35;;;;;;;3.78;2.35;;;29.50;92.40;;;;;;5069640;28;20051;-70
2023/08/10 07:18:39;;;;;;;6.32;2.17;;;29.60;93.00;;;;;;5066323;28;20047;-70
2023/08/10 07:21:43;;;;;;;5.72;2.47;;;29.60;91.90;;;;;;5068891;28;20497;-70
2023/08/10 07:25:06;;;;;;;5.40;2.38;;;30.00;91.90;;;;;;5065360;28;20036;-69
2023/08/10 07:28:36;;;;;;;6.03;2.25;;;30.20;91.60;;;;;;5062755;28;20035;-67
2023/08/10 07:32:00;;;;;;;5.82;1.95;;;31.20;91.40;;;;;;5067160;28;20052;-71
2023/08/10 07:35:23;;;;;;;4.85;1.73;;;30.90;91.10;;;;;;5061968;28;21583;-70
2023/08/10 07:38:27;;;;;;;3.97;2.30;;;31.50;89.60;;;;;;5063313;28;20059;-69
2023/08/10 07:41:50;;;;;;;5.35;2.00;;;31.60;90.30;;;;;;5065885;28;20454;-70
2023/08/10 07:48:36;;;;;;;5.82;2.30;;;29.90;91.30;;;;;;5064726;28;20056;-71
2023/08/10 07:51:43;;;;;;;3.83;1.90;;;31.50;90.40;;;;;;5069647;28;20490;-70
2023/08/10 07:54:47;;;;;;;5.57;1.98;;;32.20;90.20;;;;;;5072098;28;20399;-70
2023/08/10 07:57:51;;;;;;;9.35;2.38;;;31.50;90.30;;;;;;5072070;28;20518;-70
2023/08/10 08:00:56;;;;;;;4.43;1.98;;;31.90;90.10;;;;;;5069757;28;20047;-70
2023/08/10 08:03:59;;;;;;;4.28;2.13;;;32.60;89.40;;;;;;5068128;28;20529;-71
2023/08/10 08:07:03;;;;;;;7.28;2.20;;;33.10;87.00;;;;;;5068159;28;20047;-71
2023/08/10 08:13:31;;;;;;;6.78;2.38;;;32.40;87.60;;;;;;5064311;28;20043;-70
2023/08/10 08:17:32;;;;;;;3.55;2.03;;;32.20;87.30;;;;;;5066931;28;20032;-72
2023/08/10 08:20:36;;;;;;;2.65;1.65;;;34.90;84.10;;;;;;5060489;28;20491;-70
2023/08/10 08:27:23;;;;;;;3.47;2.00;;;36.20;82.50;;;;;;5067146;28;20048;-70
2023/08/10 08:30:46;;;;;;;3.58;1.80;;;37.00;81.20;;;;;;5062375;28;20513;-70
2023/08/10 08:34:08;;;;;;;4.25;1.80;;;37.70;77.30;;;;;;5064064;28;20044;-70
2023/08/10 08:37:12;;;;;;;5.30;1.55;;;37.70;77.30;;;;;;5060243;28;20051;-71
2023/08/10 08:40:18;;;;;;;3.38;2.42;;;38.30;75.80;;;;;;5064289;28;20055;-70
2023/08/10 08:43:22;;;;;;;3.00;1.50;;;39.00;74.40;;;;;;5067604;28;20150;-72
2023/08/10 08:46:30;;;;;;;4.55;1.85;;;38.10;74.50;;;;;;5068506;28;20043;-71
2023/08/10 08:49:34;;;;;;;6.28;2.00;;;39.70;72.00;;;;;;5062194;28;20407;-70
2023/08/10 08:53:02;;;;;;;2.72;1.73;;;40.40;70.60;;;;;;5050839;28;20068;-71
2023/08/10 08:56:07;;;;;;;2.47;1.60;;;39.40;69.70;;;;;;5061838;28;20047;-69
2023/08/10 08:59:12;;;;;;;3.38;1.52;;;37.20;72.40;;;;;;5066294;28;20071;-68
2023/08/10 09:02:16;;;;;;;2.92;1.48;;;39.00;72.70;;;;;;5053935;28;20048;-70
2023/08/10 09:05:20;;;;;;;4.93;1.88;;;39.20;70.40;;;;;;5053412;28;20403;-69
2023/08/10 09:08:43;;;;;;;5.57;1.77;;;39.70;70.40;;;;;;5062698;28;20032;-70
2023/08/10 09:11:48;;;;;;;4.63;1.75;;;41.60;68.20;;;;;;5052203;28;20111;-71
2023/08/10 09:15:16;;;;;;;3.03;1.70;;;42.90;65.00;;;;;;5051875;28;20052;-71
2023/08/10 09:18:20;;;;;;;4.63;2.00;;;42.50;62.00;;;;;;5058845;28;20056;-70
2023/08/10 09:21:25;;;;;;;4.40;2.22;;;43.00;63.20;;;;;;5070769;28;20048;-71
2023/08/10 09:24:47;;;;;;;5.50;1.58;;;43.90;62.00;;;;;;5065566;28;20395;-71
2023/08/10 09:27:52;;;;;;;5.22;1.90;;;44.50;59.50;;;;;;5066947;28;20051;-70
2023/08/10 09:31:23;;;;;;;12.07;1.90;;;43.00;58.70;;;;;;5054354;28;20040;-71
2023/08/10 09:38:00;;;;;;;2.97;1.48;;;43.90;58.90;;;;;;5055654;28;20036;-71
2023/08/10 09:41:23;;;;;;;5.70;2.03;;;44.30;58.70;;;;;;5062343;28;20040;-70
2023/08/10 09:44:45;;;;;;;6.78;3.03;;;40.60;57.20;;;;;;5071807;28;20507;-71
2023/08/10 09:47:49;;;;;;;3.92;1.70;;;40.50;58.80;;;;;;5062544;28;20533;-72
2023/08/10 09:54:37;;;;;;;7.82;1.80;;;41.00;55.80;;;;;;5074757;28;20040;-70
2023/08/10 09:58:00;;;;;;;5.28;1.75;;;42.10;58.20;;;;;;5066078;28;20055;-72
2023/08/10 10:01:05;;;;;;;5.18;1.50;;;42.80;56.50;;;;;;5066981;28;20044;-73
2023/08/10 10:04:10;;;;;;;3.90;1.60;;;43.90;57.40;;;;;;5061291;28;20313;-73
2023/08/10 10:10:37;;;;;;;5.00;1.63;;;42.30;57.80;;;;;;5063540;28;20498;-73
2023/08/10 10:14:02;;;;;;;2.97;1.50;;;43.20;58.70;;;;;;5050358;28;20379;-72
2023/08/10 10:20:32;;;;;;;3.03;1.50;;;44.10;56.80;;;;;;5069386;28;20035;-71
2023/08/10 10:23:40;;;;;;;3.88;1.65;;;44.50;58.10;;;;;;5073936;28;20043;-72
2023/08/10 10:27:09;;;;;;;4.95;1.40;;;42.50;57.20;;;;;;5060246;28;20043;-72
2023/08/10 10:30:16;;;;;;;4.13;1.70;;;41.20;59.20;;;;;;5051191;28;20510;-73
2023/08/10 10:33:22;;;;;;;3.15;1.60;;;42.40;58.70;;;;;;5056009;28;20032;-72
2023/08/10 10:36:25;;;;;;;6.38;2.00;;;44.20;58.30;;;;;;5055669;28;20048;-71
2023/08/10 10:39:29;;;;;;;6.43;1.58;;;41.10;57.90;;;;;;5049366;28;20039;-72
2023/08/10 10:42:33;;;;;;;3.05;1.50;;;40.80;59.50;;;;;;5050988;28;20047;-69
2023/08/10 10:45:56;;;;;;;6.38;1.65;;;42.90;58.90;;;;;;5059187;28;20134;-71
2023/08/10 10:49:21;;;;;;;4.93;1.45;;;39.20;59.70;;;;;;5045444;28;20052;-71
2023/08/10 10:52:38;;;;;;;4.60;1.70;;;38.60;59.80;;;;;;5050153;28;20040;-71
2023/08/10 10:55:48;;;;;;;6.13;1.55;;;40.10;60.50;;;;;;5051007;28;20055;-71
2023/08/10 10:59:11;;;;;;;4.97;1.60;;;43.20;59.30;;;;;;5054482;28;20052;-71
2023/08/10 11:02:15;;;;;;;3.00;1.27;;;43.70;58.20;;;;;;5041359;28;20056;-71
2023/08/10 11:05:37;;;;;;;2.42;1.58;;;42.90;56.70;;;;;;5054637;28;20063;-74
2023/08/10 11:08:41;;;;;;;4.13;1.48;;;42.90;56.30;;;;;;5043439;28;20028;-72
2023/08/10 11:11:49;;;;;;;6.25;1.67;;;39.30;58.20;;;;;;5046509;28;20036;-71
2023/08/10 11:15:13;;;;;;;5.13;1.48;;;42.40;56.20;;;;;;5051631;28;20044;-73
2023/08/10 11:18:58;;;;;;;5.50;1.80;;;45.30;54.80;;;;;;5049175;28;20399;-72
2023/08/10 11:22:03;;;;;;;6.00;1.67;;;46.90;53.80;;;;;;5050568;28;20037;-73
2023/08/10 11:25:31;;;;;;;2.60;1.48;;;47.30;52.60;;;;;;5042904;28;20067;-72
2023/08/10 11:28:36;;;;;;;4.97;1.40;;;47.60;53.00;;;;;;5039556;28;20032;-74
2023/08/10 11:31:59;;;;;;;2.15;1.17;;;49.30;50.40;;;;;;5047082;28;20064;-70
2023/08/10 11:39:13;;;;;;;4.47;1.35;;;48.10;51.90;;;;;;5040973;28;20044;-72
2023/08/10 11:42:41;;;;;;;3.95;1.30;;;48.80;52.20;;;;;;5039567;28;20048;-74
2023/08/10 11:46:24;;;;;;;2.55;1.40;;;49.20;51.60;;;;;;5043192;28;20047;-73
2023/08/10 11:49:30;;;;;;;2.83;1.42;;;48.80;52.00;;;;;;5035330;28;20059;-72
2023/08/10 11:52:34;;;;;;;7.00;1.65;;;48.30;52.20;;;;;;5041512;28;20045;-73
2023/08/10 11:55:51;;;;;;;2.25;1.40;;;43.90;52.50;;;;;;5042000;28;20056;-72
2023/08/10 11:58:56;;;;;;;4.05;1.20;;;43.80;53.90;;;;;;5051386;28;20051;-72
2023/08/10 12:02:19;;;;;;;3.65;1.33;;;44.90;53.60;;;;;;5044213;28;20052;-72
2023/08/10 12:05:43;;;;;;;4.30;1.55;;;42.40;52.70;;;;;;5045104;28;20040;-72
2023/08/10 12:08:47;;;;;;;4.90;1.40;;;42.90;55.30;;;;;;5054894;28;20052;-73
2023/08/10 12:11:54;;;;;;;2.28;1.48;;;44.60;54.30;;;;;;5039160;28;20028;-73
2023/08/10 12:14:57;;;;;;;1.80;1.50;;;44.10;54.60;;;;;;5042730;28;20040;-71
2023/08/10 12:18:20;;;;;;;3.70;1.60;;;44.20;53.70;;;;;;5049430;28;20060;-73
2023/08/10 12:21:24;;;;;;;2.90;1.50;;;43.70;54.50;;;;;;5040181;28;20527;-71
2023/08/10 12:24:29;;;;;;;3.58;1.70;;;43.70;54.20;;;;;;5045080;28;20044;-71
2023/08/10 12:27:33;;;;;;;4.63;1.75;;;43.80;54.50;;;;;;5054638;28;20062;-73
2023/08/10 12:30:38;;;;;;;4.95;2.15;;;44.00;54.70;;;;;;5065330;28;20383;-73
2023/08/10 12:33:41;;;;;;;4.78;1.73;;;44.60;54.60;;;;;;5071523;28;20048;-73
2023/08/10 12:36:46;;;;;;;4.60;1.88;;;40.40;55.40;;;;;;5071316;28;20063;-72
2023/08/10 12:39:49;;;;;;;4.93;2.00;;;40.90;57.10;;;;;;5071671;28;20059;-73
2023/08/10 12:42:54;;;;;;;5.80;1.92;;;42.40;56.30;;;;;;5071308;28;20043;-72
2023/08/10 12:46:19;;;;;;;4.18;1.80;;;42.10;54.70;;;;;;5070840;28;20047;-73
2023/08/10 12:49:23;;;;;;;5.68;1.67;;;42.50;56.70;;;;;;5071511;28;20039;-73
2023/08/10 12:52:28;;;;;;;3.03;1.80;;;40.90;56.00;;;;;;5058835;28;20395;-73
2023/08/10 12:55:32;;;;;;;2.40;1.65;;;38.00;57.90;;;;;;5071265;28;20055;-73
2023/08/10 12:58:36;;;;;;;2.78;1.80;;;38.30;58.20;;;;;;5064966;28;20059;-71
2023/08/10 13:01:41;;;;;;;2.72;1.58;;;38.80;57.70;;;;;;5071116;28;20063;-73
2023/08/10 13:04:46;;;;;;;2.83;1.73;;;37.80;58.00;;;;;;5070946;28;20047;-73
2023/08/10 13:08:09;;;;;;;6.90;2.05;;;37.90;58.80;;;;;;5070497;28;20043;-73
2023/08/10 13:11:14;;;;;;;4.72;2.00;;;37.20;59.20;;;;;;5071133;28;20043;-70
2023/08/10 13:14:37;;;;;;;8.20;2.05;;;35.30;60.10;;;;;;5071026;28;20355;-73
2023/08/10 13:21:23;;;;;;;5.55;1.75;;;36.90;61.10;;;;;;5070113;28;20387;-72
2023/08/10 13:24:46;;;;;;;4.53;1.42;;;37.90;58.80;;;;;;5069817;28;20043;-72
2023/08/10 13:27:50;;;;;;;6.35;2.10;;;38.10;58.90;;;;;;5070453;28;20043;-72
2023/08/10 13:30:55;;;;;;;3.63;1.98;;;38.20;57.70;;;;;;5070839;28;20502;-73
2023/08/10 13:33:59;;;;;;;3.75;2.08;;;37.80;59.30;;;;;;5070343;28;20055;-72
2023/08/10 13:37:03;;;;;;;4.07;1.80;;;36.80;59.30;;;;;;5070581;28;20039;-73
2023/08/10 13:40:08;;;;;;;4.45;1.70;;;37.40;59.60;;;;;;5070519;28;20036;-73
2023/08/10 13:43:31;;;;;;;2.83;1.70;;;37.70;58.80;;;;;;5059972;28;20513;-74
2023/08/10 13:46:54;;;;;;;4.03;1.92;;;37.60;57.80;;;;;;5051614;28;20239;-72
2023/08/10 13:50:36;;;;;;;5.15;1.70;;;36.50;60.50;;;;;;5074551;28;20247;-74
2023/08/10 13:53:59;;;;;;;3.28;1.90;;;36.50;59.80;;;;;;5073902;28;20047;-75
2023/08/10 13:57:07;;;;;;;5.25;1.85;;;35.70;60.40;;;;;;5074673;28;20050;-74
2023/08/10 14:00:14;;;;;;;7.50;2.30;;;35.30;61.70;;;;;;5074167;28;20051;-72
2023/08/10 14:03:36;;;;;;;3.95;1.60;;;35.30;61.00;;;;;;5074073;28;20072;-72
2023/08/10 14:06:40;;;;;;;3.22;1.80;;;34.80;60.80;;;;;;5074337;28;20048;-72
2023/08/10 14:09:44;;;;;;;4.07;1.85;;;35.50;61.40;;;;;;5061189;28;20042;-72
2023/08/10 14:13:07;;;;;;;5.22;2.00;;;34.90;60.00;;;;;;5073750;28;20035;-74
2023/08/10 14:19:38;;;;;;;4.25;1.92;;;35.50;61.00;;;;;;5074059;28;20048;-72
2023/08/10 14:23:01;;;;;;;3.05;1.60;;;36.20;61.40;;;;;;5073755;28;20107;-73
2023/08/10 14:26:05;;;;;;;5.47;1.92;;;36.50;60.80;;;;;;5073773;28;20518;-73
2023/08/10 14:29:09;;;;;;;3.50;1.77;;;36.60;60.40;;;;;;5073939;28;20036;-73
2023/08/10 14:32:12;;;;;;;3.38;1.75;;;36.40;60.60;;;;;;5073849;28;20490;-74
2023/08/10 14:38:41;;;;;;;7.40;2.10;;;36.50;60.90;;;;;;5074053;28;20061;-75
2023/08/10 14:42:03;;;;;;;3.22;1.75;;;36.50;59.40;;;;;;5074366;28;20085;-73
2023/08/10 14:45:08;;;;;;;4.07;1.90;;;36.70;59.50;;;;;;5073481;28;20055;-72
2023/08/10 14:48:12;;;;;;;5.00;2.15;;;36.80;60.80;;;;;;5073746;28;20043;-74
2023/08/10 14:51:35;;;;;;;4.53;1.80;;;36.80;61.30;;;;;;5073247;28;20052;-73
2023/08/10 14:54:38;;;;;;;3.25;1.75;;;36.50;60.50;;;;;;5060734;28;20431;-73
2023/08/10 14:57:43;;;;;;;3.80;1.60;;;36.70;59.80;;;;;;5072586;28;20043;-74
2023/08/10 15:01:07;;;;;;;3.67;1.90;;;36.90;61.60;;;;;;5069808;28;20044;-72
2023/08/10 15:04:30;;;;;;;3.78;1.95;;;36.60;61.10;;;;;;5072554;28;20099;-73
2023/08/10 15:07:34;;;;;;;3.33;1.88;;;36.50;60.30;;;;;;5073303;28;20048;-72
2023/08/10 15:11:07;;;;;;;4.05;1.70;;;36.50;60.60;;;;;;5072935;28;20047;-74
2023/08/10 15:14:11;;;;;;;2.70;1.67;;;36.10;62.10;;;;;;5073038;28;20210;-74
2023/08/10 15:17:15;;;;;;;7.97;1.90;;;35.20;61.30;;;;;;5072789;28;20530;-74
2023/08/10 15:20:38;;;;;;;2.90;1.95;;;35.20;61.90;;;;;;5072863;28;20044;-73
2023/08/10 15:23:45;;;;;;;4.65;1.65;;;34.90;63.20;;;;;;5072832;28;20072;-72
2023/08/10 15:26:49;;;;;;;4.78;2.00;;;34.90;61.80;;;;;;5072720;28;20545;-71
2023/08/10 15:29:53;;;;;;;4.10;1.75;;;34.30;61.40;;;;;;5072759;28;20294;-74
2023/08/10 15:32:57;;;;;;;7.47;1.95;;;34.50;62.50;;;;;;5071726;28;20187;-72
2023/08/10 15:36:06;;;;;;;5.85;1.70;;;34.70;63.30;;;;;;5072765;28;20055;-72
2023/08/10 15:39:10;;;;;;;4.32;1.92;;;34.80;63.50;;;;;;5072738;28;20412;-72
2023/08/10 15:42:14;;;;;;;6.38;1.70;;;34.80;63.30;;;;;;5072334;28;20506;-71
2023/08/10 15:45:19;;;;;;;9.55;1.90;;;34.80;63.40;;;;;;5072074;28;20043;-73
2023/08/10 15:48:23;;;;;;;3.53;1.90;;;34.80;62.60;;;;;;5072282;28;20047;-73
2023/08/10 15:51:28;;;;;;;4.35;1.70;;;34.00;62.00;;;;;;5071989;28;20044;-72
2023/08/10 15:54:51;;;;;;;4.75;2.28;;;33.90;62.10;;;;;;5072004;28;20035;-74
2023/08/10 15:58:13;;;;;;;4.47;1.83;;;34.00;62.60;;;;;;5072312;28;20047;-73
2023/08/10 16:01:17;;;;;;;4.88;1.80;;;34.20;63.30;;;;;;5072202;28;20043;-73
2023/08/10 16:04:40;;;;;;;2.72;1.80;;;34.20;63.60;;;;;;5071923;28;20048;-72
2023/08/10 16:07:44;;;;;;;3.15;1.80;;;34.00;62.80;;;;;;5072187;28;20064;-73
2023/08/10 16:10:48;;;;;;;3.78;2.00;;;33.80;62.60;;;;;;5071787;28;20047;-72
2023/08/10 16:14:11;;;;;;;4.47;2.25;;;33.70;62.30;;;;;;5067109;28;20063;-74
2023/08/10 16:17:15;;;;;;;2.50;1.90;;;33.60;63.00;;;;;;5070923;28;20047;-72
2023/08/10 16:21:00;;;;;;;4.43;1.73;;;33.50;63.30;;;;;;5071855;28;20398;-72
2023/08/10 16:24:05;;;;;;;5.60;1.67;;;33.40;63.60;;;;;;5058777;28;20052;-72
2023/08/10 16:30:31;;;;;;;5.30;2.03;;;33.00;65.40;;;;;;5071679;28;20043;-71
2023/08/10 16:33:43;;;;;;;2.33;1.52;;;33.10;64.10;;;;;;5123319;27;20388;-58
2023/08/10 16:37:06;;;;;;;3.63;2.13;;;33.20;64.00;;;;;;5107422;28;20040;-59
2023/08/10 16:40:10;;;;;;;4.40;1.80;;;33.20;63.60;;;;;;5107163;28;20048;-59
2023/08/10 16:43:14;;;;;;;4.55;1.90;;;33.20;64.30;;;;;;5086640;28;20032;-58
2023/08/10 16:46:18;;;;;;;3.08;2.05;;;33.20;64.50;;;;;;5081108;22;20041;-72
2023/08/10 16:52:44;;;;;;;3.88;2.10;;;33.00;65.40;;;;;;5061583;28;20037;-73
2023/08/10 16:55:48;;;;;;;3.50;2.20;;;32.80;66.40;;;;;;5067192;28;20033;-72
2023/08/10 16:58:52;;;;;;;3.13;1.92;;;32.70;65.40;;;;;;5067171;28;20037;-72
2023/08/10 17:02:15;;;;;;;4.53;2.33;;;32.60;65.30;;;;;;5066977;28;20033;-73
2023/08/10 17:05:20;;;;;;;3.75;2.03;;;32.60;66.10;;;;;;5066866;28;20037;-72
2023/08/10 17:08:24;;;;;;;7.30;2.00;;;32.40;66.60;;;;;;5066534;28;20040;-73
2023/08/10 17:11:28;;;;;;;6.25;2.30;;;32.20;67.10;;;;;;5066338;28;20040;-74
2023/08/10 17:14:51;;;;;;;8.38;2.45;;;31.90;69.70;;;;;;5059627;28;20275;-74
2023/08/10 17:17:55;;;;;;;7.13;2.30;;;30.80;73.00;;;;;;5066799;28;20033;-75
2023/08/10 17:21:18;;;;;;;9.20;2.53;;;30.80;73.70;;;;;;5065785;28;20032;-73
2023/08/10 17:24:22;;;;;;;13.13;2.58;;;30.40;75.30;;;;;;5058319;28;20045;-73
2023/08/10 17:27:25;;;;;;;7.40;2.03;;;30.00;76.30;;;;;;5066391;28;20048;-72
2023/08/10 17:30:48;;;;;;;7.47;2.53;;;29.60;77.70;;;;;;5069876;28;20037;-73
2023/08/10 17:34:12;;;;;;;8.23;3.10;;;29.30;79.50;;;;;;5066109;28;20488;-72
2023/08/10 17:37:16;;;;;;;5.78;2.22;;;29.10;79.50;;;;;;5064982;28;20041;-73
2023/08/10 17:43:42;;;;;;;5.45;2.60;;;28.80;81.20;;;;;;5060192;28;20539;-72
2023/08/10 17:46:46;;;;;;;6.53;2.78;;;28.70;82.40;;;;;;5052408;28;20384;-72
2023/08/10 17:50:09;;;;;;;6.82;2.60;;;28.70;82.20;;;;;;5033000;28;20365;-73
2023/08/10 17:53:32;;;;;;;5.30;2.30;;;28.50;82.80;;;;;;5032292;28;20049;-73
2023/08/10 17:56:36;;;;;;;5.80;2.50;;;28.50;83.30;;;;;;5032912;28;20050;-72
2023/08/10 17:59:40;;;;;;;16.60;2.90;;;28.30;83.60;;;;;;5033014;28;20041;-73
2023/08/10 18:03:03;;;;;;;8.80;2.47;;;28.20;84.40;;;;;;5032617;28;20057;-72
2023/08/10 18:06:07;;;;;;;4.70;2.42;;;28.10;85.00;;;;;;5032684;28;20480;-72
2023/08/10 18:09:12;;;;;;;6.90;2.90;;;27.90;85.30;;;;;;5032838;28;20481;-72
2023/08/10 18:12:16;;;;;;;10.63;3.42;;;27.80;86.30;;;;;;5032222;28;20041;-72
2023/08/10 18:15:20;;;;;;;7.50;2.50;;;27.60;87.00;;;;;;5032483;28;20487;-73
2023/08/10 18:18:24;;;;;;;8.82;2.33;;;27.50;87.50;;;;;;5033903;28;20033;-72
2023/08/10 18:21:28;;;;;;;9.82;2.40;;;27.30;88.80;;;;;;5044616;28;20029;-72
2023/08/10 18:24:32;;;;;;;6.38;2.85;;;27.10;89.00;;;;;;5052227;28;20049;-73